createdAt,value
2022-10-07T00:00:04.831Z,2.17
2022-10-07T00:02:32.449Z,2.27
2022-10-07T00:04:59.717Z,2.80
2022-10-07T00:07:27.033Z,2.23
2022-10-07T00:09:54.245Z,2.30
2022-10-07T00:12:21.779Z,2.40
2022-10-07T00:14:49.054Z,2.33
2022-10-07T00:17:16.506Z,2.60
2022-10-07T00:19:44.055Z,2.53
2022-10-07T00:22:11.228Z,2.57
2022-10-07T00:24:38.680Z,2.60
2022-10-07T00:27:05.907Z,2.90
2022-10-07T00:29:33.308Z,3.10
2022-10-07T00:32:00.519Z,3.10
2022-10-07T00:34:27.790Z,2.40
2022-10-07T00:36:55.082Z,3.00
2022-10-07T00:39:22.411Z,3.10
2022-10-07T00:41:51.163Z,3.50
2022-10-07T00:44:44.695Z,3.10
2022-10-07T00:47:14.739Z,3.70
2022-10-07T00:50:02.241Z,3.47
2022-10-07T00:52:31.893Z,3.83
2022-10-07T00:55:01.069Z,3.60
2022-10-07T00:57:31.988Z,3.50
2022-10-07T00:59:59.870Z,4.10
2022-10-07T01:02:28.319Z,3.80
2022-10-07T01:04:58.724Z,3.80
2022-10-07T01:07:26.177Z,3.80
2022-10-07T01:09:54.385Z,3.87
2022-10-07T01:12:22.112Z,3.33
2022-10-07T01:14:55.549Z,3.90
2022-10-07T01:17:26.543Z,3.80
2022-10-07T01:20:00.097Z,3.93
2022-10-07T01:22:30.702Z,3.60
2022-10-07T01:25:13.004Z,4.03
2022-10-07T01:27:42.526Z,4.20
2022-10-07T01:30:10.385Z,3.43
2022-10-07T01:32:39.791Z,3.90
2022-10-07T01:35:13.638Z,4.27
2022-10-07T01:37:42.969Z,4.17
2022-10-07T01:40:16.110Z,3.93
2022-10-07T01:42:43.586Z,4.07
2022-10-07T01:45:12.733Z,4.00
2022-10-07T01:47:40.764Z,3.90
2022-10-07T01:50:14.896Z,4.20
2022-10-07T01:52:49.582Z,4.17
2022-10-07T01:55:28.804Z,4.40
2022-10-07T01:58:06.314Z,4.20
2022-10-07T02:00:37.402Z,4.03
2022-10-07T02:03:28.134Z,3.93
2022-10-07T02:06:02.434Z,4.57
2022-10-07T02:08:44.737Z,4.60
2022-10-07T02:11:18.067Z,5.00
2022-10-07T02:14:04.380Z,4.80
2022-10-07T02:16:55.214Z,4.97
2022-10-07T02:19:24.268Z,4.60
2022-10-07T02:21:52.828Z,5.07
2022-10-07T02:24:21.509Z,4.97
2022-10-07T02:26:50.335Z,4.70
2022-10-07T02:29:18.879Z,5.07
2022-10-07T02:31:47.711Z,5.07
2022-10-07T02:34:19.940Z,4.73
2022-10-07T02:37:07.948Z,4.20
2022-10-07T02:39:35.176Z,4.43
2022-10-07T02:42:25.365Z,4.43
2022-10-07T02:45:11.192Z,4.30
2022-10-07T02:47:43.173Z,4.70
2022-10-07T02:50:12.951Z,4.67
2022-10-07T02:52:41.098Z,5.17
2022-10-07T02:55:10.349Z,4.07
2022-10-07T02:57:43.346Z,4.40
2022-10-07T03:00:11.569Z,4.37
2022-10-07T03:02:45.148Z,4.37
2022-10-07T03:05:13.032Z,4.10
2022-10-07T03:07:40.377Z,4.07
2022-10-07T03:10:09.575Z,5.73
2022-10-07T03:12:36.798Z,5.33
2022-10-07T03:15:04.123Z,4.33
2022-10-07T03:17:31.483Z,4.17
2022-10-07T03:19:59.234Z,4.70
2022-10-07T03:22:26.497Z,4.90
2022-10-07T03:24:54.352Z,4.80
2022-10-07T03:27:22.419Z,4.63
2022-10-07T03:29:50.305Z,4.13
2022-10-07T03:32:17.615Z,5.10
2022-10-07T03:34:44.942Z,5.07
2022-10-07T03:37:12.547Z,5.03
2022-10-07T03:39:39.792Z,5.00
2022-10-07T03:42:07.090Z,5.00
2022-10-07T03:44:35.644Z,5.33
2022-10-07T03:47:05.700Z,5.83
2022-10-07T03:49:36.551Z,5.17
2022-10-07T03:52:04.265Z,4.93
2022-10-07T03:54:31.663Z,4.87
2022-10-07T03:56:58.973Z,4.40
2022-10-07T03:59:26.199Z,5.03
2022-10-07T04:01:53.708Z,4.67
2022-10-07T04:04:21.084Z,6.10
2022-10-07T04:06:48.296Z,5.60
2022-10-07T04:09:15.742Z,5.50
2022-10-07T04:11:43.466Z,5.53
2022-10-07T04:14:10.706Z,5.10
2022-10-07T04:16:38.771Z,5.40
2022-10-07T04:19:06.718Z,6.20
2022-10-07T04:21:34.174Z,6.03
2022-10-07T04:24:01.428Z,6.80
2022-10-07T04:26:28.702Z,6.40
2022-10-07T04:28:56.059Z,5.97
2022-10-07T04:31:23.966Z,5.90
2022-10-07T04:33:51.433Z,6.43
2022-10-07T04:36:18.639Z,6.00
2022-10-07T04:38:50.377Z,6.20
2022-10-07T04:41:18.205Z,6.57
2022-10-07T04:43:45.411Z,5.80
2022-10-07T04:46:14.346Z,6.03
2022-10-07T04:48:44.090Z,5.50
2022-10-07T04:51:11.291Z,6.20
2022-10-07T04:53:39.389Z,5.17
2022-10-07T04:56:07.194Z,6.37
2022-10-07T04:58:34.598Z,6.70
2022-10-07T05:01:02.166Z,6.43
2022-10-07T05:03:30.472Z,7.07
2022-10-07T05:06:06.560Z,6.70
2022-10-07T05:08:33.855Z,6.63
2022-10-07T05:11:02.010Z,6.57
2022-10-07T05:13:29.898Z,6.60
2022-10-07T05:15:58.824Z,6.87
2022-10-07T05:18:27.029Z,6.80
2022-10-07T05:20:54.978Z,7.87
2022-10-07T05:23:27.856Z,7.50
2022-10-07T05:25:59.717Z,7.57
2022-10-07T05:28:27.196Z,6.90
2022-10-07T05:31:06.142Z,7.27
2022-10-07T05:33:33.676Z,6.53
2022-10-07T05:36:01.209Z,8.43
2022-10-07T05:38:29.010Z,9.10
2022-10-07T05:40:59.895Z,8.67
2022-10-07T05:43:31.145Z,7.97
2022-10-07T05:46:02.635Z,9.77
2022-10-07T05:48:34.231Z,7.50
2022-10-07T05:51:04.573Z,7.80
2022-10-07T05:53:32.238Z,5.80
2022-10-07T05:55:59.825Z,4.90
2022-10-07T05:58:28.050Z,4.87
2022-10-07T06:00:58.056Z,72.83
2022-10-07T06:03:27.643Z,32.03
2022-10-07T06:05:55.425Z,13.73
2022-10-07T06:08:23.737Z,16.13
2022-10-07T06:11:09.529Z,14.30
2022-10-07T06:13:37.784Z,10.93
2022-10-07T06:16:09.316Z,10.73
2022-10-07T06:18:37.304Z,19.07
2022-10-07T06:21:04.749Z,20.80
2022-10-07T06:23:32.426Z,21.67
2022-10-07T06:26:00.965Z,22.23
2022-10-07T06:28:32.549Z,22.93
2022-10-07T06:31:00.206Z,23.60
2022-10-07T06:33:27.708Z,23.00
2022-10-07T06:36:02.231Z,24.07
2022-10-07T06:38:31.771Z,24.47
2022-10-07T06:40:59.647Z,26.37
2022-10-07T06:43:27.660Z,25.13
2022-10-07T06:46:02.373Z,25.13
2022-10-07T06:48:30.344Z,24.73
2022-10-07T06:51:03.372Z,25.70
2022-10-07T06:53:31.091Z,26.30
2022-10-07T06:56:02.070Z,25.87
2022-10-07T06:58:29.883Z,26.67
2022-10-07T07:00:57.917Z,26.40
2022-10-07T07:03:25.452Z,25.87
2022-10-07T07:05:54.521Z,25.73
2022-10-07T07:08:23.166Z,27.87
2022-10-07T07:10:50.383Z,25.57
2022-10-07T07:13:18.144Z,25.50
2022-10-07T07:15:54.556Z,25.93
2022-10-07T07:18:21.840Z,27.67
2022-10-07T07:20:49.023Z,27.77
2022-10-07T07:23:16.226Z,27.07
2022-10-07T07:25:46.610Z,27.27
2022-10-07T07:28:15.378Z,27.30
2022-10-07T07:30:43.271Z,28.10
2022-10-07T07:33:10.616Z,25.87
2022-10-07T07:35:41.612Z,26.23
2022-10-07T07:38:09.097Z,25.33
2022-10-07T07:40:37.578Z,25.40
2022-10-07T07:43:05.327Z,26.00
2022-10-07T07:45:33.161Z,26.30
2022-10-07T07:48:00.684Z,26.60
2022-10-07T07:50:27.978Z,25.10
2022-10-07T07:52:57.532Z,24.53
2022-10-07T07:55:25.059Z,24.67
2022-10-07T07:57:52.590Z,25.00
2022-10-07T08:00:20.141Z,23.17
2022-10-07T08:02:47.623Z,24.60
2022-10-07T08:05:15.817Z,25.10
2022-10-07T08:07:45.608Z,23.23
2022-10-07T08:10:13.029Z,24.03
2022-10-07T08:12:40.320Z,21.53
2022-10-07T08:15:09.192Z,23.10
2022-10-07T08:17:36.387Z,22.33
2022-10-07T08:20:03.791Z,20.63
2022-10-07T08:22:31.057Z,20.63
2022-10-07T08:25:00.023Z,18.07
2022-10-07T08:27:28.456Z,20.15
2022-10-07T08:29:56.564Z,19.20
2022-10-07T08:32:23.815Z,20.10
2022-10-07T08:34:51.120Z,19.13
2022-10-07T08:37:18.467Z,17.90
2022-10-07T08:39:45.722Z,16.35
2022-10-07T08:42:15.996Z,16.53
2022-10-07T08:44:45.257Z,16.42
2022-10-07T08:47:12.606Z,16.63
2022-10-07T08:49:54.148Z,16.30
2022-10-07T08:52:32.734Z,15.23
2022-10-07T08:55:04.372Z,16.02
2022-10-07T08:57:50.615Z,15.50
2022-10-07T09:00:20.077Z,15.75
2022-10-07T09:03:06.537Z,16.30
2022-10-07T09:05:42.040Z,16.63
2022-10-07T09:08:15.098Z,15.32
2022-10-07T09:10:49.549Z,15.68
2022-10-07T09:13:20.865Z,15.90
2022-10-07T09:16:00.504Z,16.90
2022-10-07T09:18:32.286Z,15.38
2022-10-07T09:21:00.449Z,15.20
2022-10-07T09:23:32.551Z,15.32
2022-10-07T09:25:59.808Z,15.30
2022-10-07T09:28:29.543Z,15.40
2022-10-07T09:30:57.772Z,14.25
2022-10-07T09:33:25.451Z,14.45
2022-10-07T09:35:57.718Z,14.05
2022-10-07T09:38:31.669Z,14.05
2022-10-07T09:41:15.692Z,13.63
2022-10-07T09:44:01.893Z,14.10
2022-10-07T09:46:35.325Z,13.45
2022-10-07T09:49:07.315Z,13.38
2022-10-07T09:51:35.488Z,13.23
2022-10-07T09:54:19.466Z,12.73
2022-10-07T09:56:47.627Z,11.27
2022-10-07T09:59:17.940Z,12.88
2022-10-07T10:01:54.233Z,12.45
2022-10-07T10:04:24.367Z,12.30
2022-10-07T10:06:52.935Z,14.35
2022-10-07T10:09:23.991Z,12.88
2022-10-07T10:12:12.323Z,11.93
2022-10-07T10:14:42.674Z,10.93
2022-10-07T10:17:21.882Z,13.38
2022-10-07T10:19:49.413Z,12.50
2022-10-07T10:22:43.707Z,14.93
2022-10-07T10:25:30.860Z,12.27
2022-10-07T10:28:06.304Z,11.63
2022-10-07T10:30:46.426Z,13.10
2022-10-07T10:33:20.471Z,13.02
2022-10-07T10:35:59.746Z,13.07
2022-10-07T10:38:49.077Z,12.30
2022-10-07T10:41:16.367Z,11.80
2022-10-07T10:43:46.759Z,12.77
2022-10-07T10:46:20.285Z,12.70
2022-10-07T10:48:50.944Z,12.63
2022-10-07T10:51:42.465Z,12.95
2022-10-07T10:54:18.204Z,12.38
2022-10-07T10:56:48.989Z,12.18
2022-10-07T10:59:25.849Z,12.88
2022-10-07T11:02:12.086Z,11.77
2022-10-07T11:04:50.192Z,11.35
2022-10-07T11:07:21.190Z,11.70
2022-10-07T11:09:53.250Z,12.02
2022-10-07T11:12:24.952Z,11.13
2022-10-07T11:14:57.874Z,11.40
2022-10-07T11:17:28.122Z,11.25
2022-10-07T11:20:12.599Z,12.00
2022-10-07T11:22:42.366Z,11.13
2022-10-07T11:25:15.967Z,12.02
2022-10-07T11:27:45.435Z,11.60
2022-10-07T11:30:21.277Z,11.07
2022-10-07T11:32:49.409Z,13.02
2022-10-07T11:35:37.016Z,12.45
2022-10-07T11:38:13.487Z,11.48
2022-10-07T11:40:58.843Z,10.65
2022-10-07T11:43:41.528Z,11.23
2022-10-07T11:46:11.538Z,10.90
2022-10-07T11:49:05.718Z,10.65
2022-10-07T11:51:40.183Z,11.25
2022-10-07T11:54:13.265Z,11.40
2022-10-07T11:57:06.797Z,9.95
2022-10-07T11:59:48.299Z,9.93
2022-10-07T12:02:31.076Z,12.32
2022-10-07T12:05:02.776Z,10.13
2022-10-07T12:07:33.183Z,10.38
2022-10-07T12:10:03.811Z,10.68
2022-10-07T12:12:47.256Z,11.52
2022-10-07T12:15:33.530Z,9.93
2022-10-07T12:18:21.334Z,9.50
2022-10-07T12:20:48.659Z,9.63
2022-10-07T12:23:19.017Z,9.13
2022-10-07T12:25:47.718Z,8.88
2022-10-07T12:28:35.745Z,9.75
2022-10-07T12:31:03.044Z,9.55
2022-10-07T12:33:43.494Z,10.25
2022-10-07T12:36:38.018Z,9.88
2022-10-07T12:39:07.962Z,9.63
2022-10-07T12:41:43.251Z,10.30
2022-10-07T12:44:16.706Z,10.70
2022-10-07T12:46:52.163Z,10.43
2022-10-07T12:49:22.603Z,10.45
2022-10-07T12:52:00.006Z,10.18
2022-10-07T12:54:35.145Z,10.75
2022-10-07T12:57:04.115Z,10.65
2022-10-07T12:59:49.802Z,9.77
2022-10-07T13:02:19.243Z,10.48
2022-10-07T13:04:55.929Z,10.48
2022-10-07T13:07:38.841Z,10.65
2022-10-07T13:10:06.090Z,10.55
2022-10-07T13:12:44.570Z,11.35
2022-10-07T13:15:31.502Z,11.32
2022-10-07T13:18:08.597Z,11.00
2022-10-07T13:20:40.361Z,11.57
2022-10-07T13:23:20.900Z,11.07
2022-10-07T13:25:55.235Z,11.25
2022-10-07T13:28:23.907Z,9.88
2022-10-07T13:30:53.227Z,10.57
2022-10-07T13:33:24.718Z,10.20
2022-10-07T13:35:53.113Z,10.82
2022-10-07T13:38:27.465Z,10.02
2022-10-07T13:41:02.730Z,10.10
2022-10-07T13:43:31.210Z,9.43
2022-10-07T13:45:59.585Z,9.77
2022-10-07T13:48:29.195Z,9.25
2022-10-07T13:50:58.608Z,9.52
2022-10-07T13:53:33.484Z,8.65
2022-10-07T13:56:19.748Z,8.45
2022-10-07T13:58:47.498Z,8.50
2022-10-07T14:01:15.045Z,8.48
2022-10-07T14:04:02.756Z,8.98
2022-10-07T14:06:38.101Z,7.97
2022-10-07T14:09:16.667Z,7.57
2022-10-07T14:11:43.935Z,8.75
2022-10-07T14:14:22.716Z,8.00
2022-10-07T14:16:51.519Z,8.27
2022-10-07T14:19:21.051Z,8.10
2022-10-07T14:21:48.765Z,7.40
2022-10-07T14:24:20.607Z,8.68
2022-10-07T14:26:48.409Z,9.30
2022-10-07T14:29:35.791Z,9.23
2022-10-07T14:32:32.316Z,9.20
2022-10-07T14:35:21.753Z,8.65
2022-10-07T14:37:49.462Z,8.88
2022-10-07T14:40:18.496Z,8.40
2022-10-07T14:42:46.369Z,7.88
2022-10-07T14:45:18.164Z,7.70
2022-10-07T14:47:45.926Z,7.32
2022-10-07T14:50:13.871Z,7.38
2022-10-07T14:52:47.104Z,7.60
2022-10-07T14:55:17.929Z,7.40
2022-10-07T14:57:47.390Z,6.57
2022-10-07T15:00:24.723Z,6.90
2022-10-07T15:02:53.293Z,6.75
2022-10-07T15:05:20.828Z,7.18
2022-10-07T15:07:49.984Z,7.60
2022-10-07T15:10:21.668Z,7.90
2022-10-07T15:12:49.302Z,9.40
2022-10-07T15:15:17.041Z,9.15
2022-10-07T15:17:44.868Z,8.05
2022-10-07T15:20:14.306Z,7.38
2022-10-07T15:22:42.428Z,7.15
2022-10-07T15:25:10.536Z,7.32
2022-10-07T15:27:38.088Z,8.13
2022-10-07T15:30:07.285Z,8.77
2022-10-07T15:32:35.105Z,9.43
2022-10-07T15:35:02.746Z,10.02
2022-10-07T15:37:30.092Z,9.63
2022-10-07T15:39:58.849Z,8.15
2022-10-07T15:42:26.188Z,10.90
2022-10-07T15:44:53.935Z,9.80
2022-10-07T15:47:21.838Z,8.93
2022-10-07T15:49:49.667Z,9.80
2022-10-07T15:52:17.235Z,8.20
2022-10-07T15:54:46.508Z,8.23
2022-10-07T15:57:14.397Z,7.45
2022-10-07T15:59:42.385Z,10.18
2022-10-07T16:02:16.891Z,9.40
2022-10-07T16:04:47.439Z,8.32
2022-10-07T16:07:15.282Z,9.75
2022-10-07T16:09:42.977Z,9.75
2022-10-07T16:12:10.291Z,15.75
2022-10-07T16:14:39.017Z,11.95
2022-10-07T16:17:06.344Z,13.63
2022-10-07T16:19:33.837Z,12.18
2022-10-07T16:22:01.350Z,11.45
2022-10-07T16:24:34.035Z,11.63
2022-10-07T16:27:02.466Z,12.23
2022-10-07T16:29:48.541Z,14.20
2022-10-07T16:32:15.907Z,12.48
2022-10-07T16:34:44.489Z,12.45
2022-10-07T16:37:14.951Z,13.98
2022-10-07T16:39:42.212Z,14.10
2022-10-07T16:42:09.647Z,14.82
2022-10-07T16:44:37.741Z,14.13
2022-10-07T16:47:05.035Z,13.02
2022-10-07T16:49:32.473Z,13.13
2022-10-07T16:52:00.032Z,13.82
2022-10-07T16:54:30.028Z,14.55
2022-10-07T16:56:57.731Z,14.18
2022-10-07T16:59:25.806Z,14.50
2022-10-07T17:01:55.709Z,16.48
2022-10-07T17:04:24.553Z,14.55
2022-10-07T17:06:52.108Z,15.50
2022-10-07T17:09:19.512Z,15.65
2022-10-07T17:11:47.257Z,15.82
2022-10-07T17:14:19.369Z,17.48
2022-10-07T17:16:48.030Z,22.77
2022-10-07T17:19:17.742Z,25.70
2022-10-07T17:21:46.391Z,28.58
2022-10-07T17:24:14.766Z,25.40
2022-10-07T17:26:42.337Z,19.65
2022-10-07T17:29:12.039Z,19.10
2022-10-07T17:31:40.309Z,17.02
2022-10-07T17:34:08.303Z,17.13
2022-10-07T17:36:35.680Z,16.63
2022-10-07T17:39:03.002Z,13.65
2022-10-07T17:41:32.257Z,12.38
2022-10-07T17:44:00.474Z,12.20
2022-10-07T17:46:29.623Z,12.60
2022-10-07T17:48:58.254Z,13.35
2022-10-07T17:51:28.101Z,14.15
2022-10-07T17:54:02.085Z,16.40
2022-10-07T17:56:30.293Z,17.80
2022-10-07T17:58:57.986Z,14.65
2022-10-07T18:01:27.609Z,14.15
2022-10-07T18:03:57.641Z,14.83
2022-10-07T18:06:30.365Z,14.63
2022-10-07T18:09:03.305Z,16.08
2022-10-07T18:11:49.739Z,16.42
2022-10-07T18:14:36.038Z,16.63
2022-10-07T18:17:03.631Z,17.23
2022-10-07T18:19:31.185Z,17.90
2022-10-07T18:21:58.932Z,17.83
2022-10-07T18:24:28.900Z,18.73
2022-10-07T18:26:59.422Z,18.58
2022-10-07T18:29:31.037Z,18.77
2022-10-07T18:31:58.359Z,17.25
2022-10-07T18:34:26.142Z,15.23
2022-10-07T18:36:56.676Z,15.02
2022-10-07T18:39:27.234Z,15.33
2022-10-07T18:41:54.570Z,14.48
2022-10-07T18:44:25.204Z,16.30
2022-10-07T18:46:53.317Z,15.52
2022-10-07T18:49:20.633Z,15.50
2022-10-07T18:51:50.527Z,17.25
2022-10-07T18:54:21.300Z,17.90
2022-10-07T18:56:49.193Z,18.93
2022-10-07T18:59:17.060Z,20.53
2022-10-07T19:01:49.899Z,20.92
2022-10-07T19:04:18.469Z,20.47
2022-10-07T19:06:46.331Z,19.73
2022-10-07T19:09:15.731Z,17.48
2022-10-07T19:11:43.027Z,17.03
2022-10-07T19:14:10.313Z,18.15
2022-10-07T19:16:45.126Z,19.07
2022-10-07T19:19:17.273Z,27.90
2022-10-07T19:21:54.777Z,24.97
2022-10-07T19:24:45.468Z,24.13
2022-10-07T19:27:12.724Z,21.43
2022-10-07T19:29:40.144Z,19.70
2022-10-07T19:32:08.729Z,19.33
2022-10-07T19:34:36.605Z,19.20
2022-10-07T19:37:04.202Z,21.70
2022-10-07T19:39:31.500Z,28.60
2022-10-07T19:41:59.327Z,28.90
2022-10-07T19:44:26.773Z,23.93
2022-10-07T19:46:54.407Z,24.80
2022-10-07T19:49:22.360Z,21.30
2022-10-07T19:51:49.884Z,21.87
2022-10-07T19:54:17.410Z,20.77
2022-10-07T19:56:45.341Z,21.47
2022-10-07T19:59:13.896Z,20.30
2022-10-07T20:01:42.632Z,21.20
2022-10-07T20:04:13.338Z,20.50
2022-10-07T20:06:40.936Z,20.83
2022-10-07T20:09:09.527Z,20.47
2022-10-07T20:11:37.115Z,19.60
2022-10-07T20:14:06.016Z,20.97
2022-10-07T20:16:34.327Z,21.33
2022-10-07T20:19:05.950Z,20.47
2022-10-07T20:21:35.556Z,21.20
2022-10-07T20:24:03.659Z,21.50
2022-10-07T20:26:32.027Z,24.63
2022-10-07T20:29:00.778Z,23.30
2022-10-07T20:31:29.805Z,21.60
2022-10-07T20:33:58.520Z,22.77
2022-10-07T20:36:27.548Z,24.47
2022-10-07T20:39:18.181Z,24.90
2022-10-07T20:42:04.319Z,24.00
2022-10-07T20:44:31.643Z,25.13
2022-10-07T20:46:58.948Z,27.40
2022-10-07T20:49:28.713Z,25.77
2022-10-07T20:52:01.193Z,24.63
2022-10-07T20:54:29.284Z,27.87
2022-10-07T20:57:00.382Z,27.40
2022-10-07T20:59:28.226Z,27.40
2022-10-07T21:01:55.542Z,28.33
2022-10-07T21:04:27.202Z,23.80
2022-10-07T21:06:54.756Z,23.63
2022-10-07T21:09:22.280Z,22.38
2022-10-07T21:11:49.917Z,20.27
2022-10-07T21:14:17.721Z,21.83
2022-10-07T21:16:46.327Z,21.03
2022-10-07T21:19:14.260Z,21.37
2022-10-07T21:21:42.137Z,25.10
2022-10-07T21:24:09.648Z,25.87
2022-10-07T21:26:37.149Z,26.63
2022-10-07T21:29:07.217Z,26.77
2022-10-07T21:31:35.750Z,28.07
2022-10-07T21:34:07.946Z,30.03
2022-10-07T21:36:37.159Z,28.97
2022-10-07T21:39:04.458Z,28.93
2022-10-07T21:41:34.413Z,29.60
2022-10-07T21:44:02.827Z,29.67
2022-10-07T21:46:31.223Z,30.50
2022-10-07T21:48:58.804Z,30.80
2022-10-07T21:51:27.299Z,31.13
2022-10-07T21:53:55.162Z,31.33
2022-10-07T21:56:22.473Z,30.87
2022-10-07T21:58:52.438Z,31.65
2022-10-07T22:01:21.075Z,32.60
2022-10-07T22:03:48.749Z,32.73
2022-10-07T22:06:17.342Z,31.03
2022-10-07T22:08:46.118Z,31.88
2022-10-07T22:11:17.982Z,31.47
2022-10-07T22:13:53.284Z,31.03
2022-10-07T22:16:20.724Z,32.15
2022-10-07T22:18:49.519Z,32.88
2022-10-07T22:21:17.068Z,31.97
2022-10-07T22:23:44.525Z,32.90
2022-10-07T22:26:13.000Z,33.57
2022-10-07T22:28:41.066Z,32.73
2022-10-07T22:31:10.103Z,33.83
2022-10-07T22:33:38.283Z,32.87
2022-10-07T22:36:10.496Z,33.83
2022-10-07T22:38:37.896Z,33.37
2022-10-07T22:41:06.023Z,35.03
2022-10-07T22:43:36.598Z,33.03
2022-10-07T22:46:04.086Z,34.50
2022-10-07T22:48:31.714Z,33.13
2022-10-07T22:51:07.084Z,33.40
2022-10-07T22:53:35.017Z,34.43
2022-10-07T22:56:03.223Z,35.80
2022-10-07T22:58:30.833Z,36.50
2022-10-07T23:01:02.949Z,34.85
2022-10-07T23:03:30.383Z,35.87
2022-10-07T23:06:00.199Z,34.93
2022-10-07T23:08:28.534Z,34.33
2022-10-07T23:10:56.977Z,35.90
2022-10-07T23:13:27.103Z,34.53
2022-10-07T23:16:01.759Z,37.37
2022-10-07T23:18:29.815Z,33.67
2022-10-07T23:21:04.834Z,34.17
2022-10-07T23:23:36.449Z,33.80
2022-10-07T23:26:05.452Z,35.23
2022-10-07T23:28:35.454Z,37.40
2022-10-07T23:31:10.073Z,36.43
2022-10-07T23:33:38.550Z,37.47
2022-10-07T23:36:09.093Z,36.20
2022-10-07T23:38:38.995Z,38.53
2022-10-07T23:41:07.330Z,39.07
2022-10-07T23:43:34.896Z,39.03
2022-10-07T23:46:02.312Z,39.63
2022-10-07T23:48:33.506Z,41.23
2022-10-07T23:51:01.322Z,40.00
2022-10-07T23:53:28.589Z,38.47
2022-10-07T23:55:55.871Z,38.67
2022-10-07T23:58:24.616Z,41.03
